地図

経路データ

SID SEASON NUMBER BASIN SUBBASIN NAME ISO_TIME NATURE LAT LON WMO_WIND WMO_PRES WMO_AGENCY TRACK_TYPE DIST2LAND LANDFALL IFLAG USA_AGENCY USA_ATCF_ID USA_LAT USA_LON USA_RECORD USA_STATUS USA_WIND USA_PRES USA_SSHS USA_R34_NE USA_R34_SE USA_R34_SW USA_R34_NW USA_R50_NE USA_R50_SE USA_R50_SW USA_R50_NW USA_R64_NE USA_R64_SE USA_R64_SW USA_R64_NW USA_POCI USA_ROCI USA_RMW USA_EYE TOKYO_LAT TOKYO_LON TOKYO_GRADE TOKYO_WIND TOKYO_PRES TOKYO_R50_DIR TOKYO_R50_LONG TOKYO_R50_SHORT TOKYO_R30_DIR TOKYO_R30_LONG TOKYO_R30_SHORT TOKYO_LAND CMA_LAT CMA_LON CMA_CAT CMA_WIND CMA_PRES HKO_LAT HKO_LON HKO_CAT HKO_WIND HKO_PRES NEWDELHI_LAT NEWDELHI_LON NEWDELHI_GRADE NEWDELHI_WIND NEWDELHI_PRES NEWDELHI_CI NEWDELHI_DP NEWDELHI_POCI REUNION_LAT REUNION_LON REUNION_TYPE REUNION_WIND REUNION_PRES REUNION_TNUM REUNION_CI REUNION_RMW REUNION_R34_NE REUNION_R34_SE REUNION_R34_SW REUNION_R34_NW REUNION_R50_NE REUNION_R50_SE REUNION_R50_SW REUNION_R50_NW REUNION_R64_NE REUNION_R64_SE REUNION_R64_SW REUNION_R64_NW BOM_LAT BOM_LON BOM_TYPE BOM_WIND BOM_PRES BOM_TNUM BOM_CI BOM_RMW BOM_R34_NE BOM_R34_SE BOM_R34_SW BOM_R34_NW BOM_R50_NE BOM_R50_SE BOM_R50_SW BOM_R50_NW BOM_R64_NE BOM_R64_SE BOM_R64_SW BOM_R64_NW BOM_ROCI BOM_POCI BOM_EYE BOM_POS_METHOD BOM_PRES_METHOD NADI_LAT NADI_LON NADI_CAT NADI_WIND NADI_PRES WELLINGTON_LAT WELLINGTON_LON WELLINGTON_WIND WELLINGTON_PRES DS824_LAT DS824_LON DS824_STAGE DS824_WIND DS824_PRES TD9636_LAT TD9636_LON TD9636_STAGE TD9636_WIND TD9636_PRES TD9635_LAT TD9635_LON TD9635_WIND TD9635_PRES TD9635_ROCI NEUMANN_LAT NEUMANN_LON NEUMANN_CLASS NEUMANN_WIND NEUMANN_PRES MLC_LAT MLC_LON MLC_CLASS MLC_WIND MLC_PRES USA_GUST BOM_GUST BOM_GUST_PER REUNION_GUST REUNION_GUST_PER USA_SEAHGT USA_SEARAD_NE USA_SEARAD_SE USA_SEARAD_SW USA_SEARAD_NW STORM_SPEED STORM_DIR
1987093N05155 1987 25 WP MM PERCY 1987-04-03 00:00:00 NR 5.00000 155.400 main 995 986 O_________O___ jtwc_wp WP021987 5.00000 155.400 15 -1 5.00000 155.400 1 15 4 270
1987093N05155 1987 25 WP MM PERCY 1987-04-03 03:00:00 NR 5.00001 155.214 main 986 975 P_________P___ WP021987 5.00002 155.188 20 -1 5.00001 155.241 1 17 4 270
1987093N05155 1987 25 WP MM PERCY 1987-04-03 06:00:00 NR 5.00000 155.037 main 975 970 O_________P___ jtwc_wp WP021987 5.00000 155.000 25 -1 5.00000 155.075 1 20 3 270
1987093N05155 1987 25 WP MM PERCY 1987-04-03 09:00:00 NR 4.99999 154.873 main 970 960 P_________P___ WP021987 4.99999 154.850 25 -1 4.99999 154.897 1 22 3 270
1987093N05155 1987 25 WP MM PERCY 1987-04-03 12:00:00 NR 5.00000 154.700 main 960 951 O_________O___ jtwc_wp WP021987 5.00000 154.700 25 -1 5.00000 154.700 1 25 4 270
1987093N05155 1987 25 WP MM PERCY 1987-04-03 15:00:00 NR 5.00001 154.498 main 951 942 P_________P___ WP021987 4.99999 154.515 25 -1 5.00002 154.481 1 25 4 270
1987093N05155 1987 25 WP MM PERCY 1987-04-03 18:00:00 NR 5.00001 154.275 main 942 929 O_________P___ jtwc_wp WP021987 5.00000 154.300 25 -1 5.00003 154.250 1 25 5 270
1987093N05155 1987 25 WP MM PERCY 1987-04-03 21:00:00 NR 5.00002 154.031 main 929 921 P_________P___ WP021987 5.00001 154.043 25 -1 5.00002 154.019 1 25 5 270
1987093N05155 1987 25 WP MM PERCY 1987-04-04 00:00:00 NR 5.00000 153.800 main 921 913 O_________O___ jtwc_wp WP021987 5.00000 153.800 25 -1 5.00000 153.800 1 25 4 270
1987093N05155 1987 25 WP MM PERCY 1987-04-04 03:00:00 NR 4.99997 153.627 main 913 910 P_________P___ WP021987 4.99998 153.643 25 -1 4.99996 153.611 1 25 3 270
1987093N05155 1987 25 WP MM PERCY 1987-04-04 06:00:00 NR 4.99998 153.467 main 910 903 O_________P___ jtwc_wp WP021987 5.00000 153.500 25 -1 4.99996 153.435 1 25 3 270
1987093N05155 1987 25 WP MM PERCY 1987-04-04 09:00:00 NR 4.99999 153.287 main 903 896 P_________P___ WP021987 5.00000 153.308 25 -1 4.99997 153.267 1 25 4 270
1987093N05155 1987 25 WP MM PERCY 1987-04-04 12:00:00 NR 5.00000 153.100 main 896 891 O_________O___ jtwc_wp WP021987 5.00000 153.100 25 -1 5.00000 153.100 1 25 4 269
1987093N05155 1987 25 WP MM PERCY 1987-04-04 15:00:00 NR 4.99590 152.923 main 891 888 P_________P___ WP021987 5.00000 152.893 25 -1 4.99179 152.953 1 25 3 269
1987093N05155 1987 25 WP MM PERCY 1987-04-04 18:00:00 NR 4.99243 152.751 main 888 883 O_________P___ jtwc_wp WP021987 5.00000 152.700 25 -1 4.98487 152.802 1 25 3 269
1987093N05155 1987 25 WP MM PERCY 1987-04-04 21:00:00 NR 4.99274 152.595 main 883 878 P_________P___ WP021987 4.99997 152.565 25 -1 4.98552 152.625 1 25 4 271
1987093N05155 1987 25 WP MM PERCY 1987-04-05 00:00:00 NR 5.00000 152.400 main 878 873 O_________O___ jtwc_wp WP021987 5.00000 152.400 25 -1 5.00000 152.400 1 25 5 271
1987093N05155 1987 25 WP MM PERCY 1987-04-05 03:00:00 NR 4.99815 152.119 main 873 868 P_________P___ WP021987 4.98499 152.137 27 -1 5.01130 152.100 1 26 6 272
1987093N05155 1987 25 WP MM PERCY 1987-04-05 06:00:00 NR 5.02003 151.776 main 868 866 O_________P___ jtwc_wp WP021987 5.00000 151.800 30 -1 5.04007 151.752 1 27 7 277
1987093N05155 1987 25 WP MM PERCY 1987-04-05 09:00:00 NR 5.08815 151.393 main 875 874 P_________P___ WP021987 5.07751 151.408 30 -1 5.09879 151.378 1 28 8 283
1987093N05155 1987 25 WP MM PERCY 1987-04-05 12:00:00 NR 5.20000 151.000 main 885 885 O_________O___ jtwc_wp WP021987 5.20000 151.000 30 -1 5.20000 151.000 1 30 8 288
1987093N05155 1987 25 WP MM PERCY 1987-04-05 15:00:00 NR 5.33409 150.622 main 897 897 P_________P___ WP021987 5.32747 150.642 30 -1 5.34072 150.601 1 30 8 293
1987093N05155 1987 25 WP MM PERCY 1987-04-05 18:00:00 NR 5.51258 150.255 main 910 906 O_________P___ jtwc_wp WP021987 5.50000 150.300 30 -1 5.52515 150.210 1 30 8 299
1987093N05155 1987 25 WP MM PERCY 1987-04-05 21:00:00 NR 5.73726 149.892 main 917 917 P_________P___ WP021987 5.72752 149.920 30 -1 5.74699 149.864 1 30 8 307
1987093N05155 1987 25 WP MM PERCY 1987-04-06 00:00:00 NR 6.00000 149.600 main 940 940 O_________O___ jtwc_wp WP021987 6.00000 149.600 30 -1 6.00000 149.600 1 30 8 319
1987093N05155 1987 25 WP MM PERCY 1987-04-06 03:00:00 NR 6.31018 149.394 main 967 967 P_________P___ WP021987 6.29247 149.390 30 -1 6.32790 149.399 1 30 7 335
1987093N05155 1987 25 WP MM PERCY 1987-04-06 06:00:00 NR 6.63733 149.295 main 997 997 O_________P___ jtwc_wp WP021987 6.60000 149.300 30 -1 6.67467 149.290 1 30 7 350
1987093N05155 1987 25 WP MM PERCY 1987-04-06 09:00:00 NR 6.96827 149.273 main 1041 1041 P_________P___ WP021987 6.95242 149.260 30 -1 6.98412 149.286 1 30 6 10
1987093N05155 1987 25 WP MM PERCY 1987-04-06 12:00:00 NR 7.20000 149.400 main 1065 1065 O_________O___ jtwc_wp WP021987 7.20000 149.400 30 -1 7.20000 149.400 1 30 5 60
1987093N05155 1987 25 WP MM PERCY 1987-04-06 15:00:00 NR 7.24304 149.746 main 1073 1073 P_________P___ WP021987 7.20265 149.820 30 -1 7.28342 149.672 1 30 8 91
1987093N05155 1987 25 WP MM PERCY 1987-04-06 18:00:00 NR 7.18273 150.174 main 1087 1083 O_________P___ jtwc_wp WP021987 7.10000 150.300 30 -1 7.26546 150.048 1 30 8 100
1987093N05155 1987 25 WP MM PERCY 1987-04-06 21:00:00 NR 7.11480 150.507 main 1086 1083 P_________P___ WP021987 7.06490 150.565 30 -1 7.16470 150.450 1 30 6 106
1987093N05155 1987 25 WP MM PERCY 1987-04-07 00:00:00 NR 7.00000 150.800 main 1087 1075 O_________O___ jtwc_wp WP021987 7.00000 150.800 30 -1 7.00000 150.800 1 30 7 114
1987093N05155 1987 25 WP MM PERCY 1987-04-07 03:00:00 NR 6.84307 151.135 main 1064 1043 P_________P___ WP021987 6.89508 151.203 30 -1 6.79107 151.067 1 28 7 124
1987093N05155 1987 25 WP MM PERCY 1987-04-07 06:00:00 NR 6.61486 151.380 main 1043 1010 O_________P___ jtwc_wp WP021987 6.70000 151.500 30 -1 6.52973 151.260 1 27 6 152
1987093N05155 1987 25 WP MM PERCY 1987-04-07 09:00:00 NR 6.30548 151.427 main 1010 975 P_________P___ WP021987 6.35743 151.505 27 -1 6.25353 151.348 1 26 6 188
1987093N05155 1987 25 WP MM PERCY 1987-04-07 12:00:00 NR 6.00000 151.300 main 975 952 O_________O___ jtwc_wp WP021987 6.00000 151.300 25 -1 6.00000 151.300 1 25 7 217
1987093N05155 1987 25 WP MM PERCY 1987-04-07 15:00:00 NR 5.78383 151.035 main 952 930 P_________P___ WP021987 5.76253 150.987 25 -1 5.80513 151.082 1 25 7 239
1987093N05155 1987 25 WP MM PERCY 1987-04-07 18:00:00 NR 5.62011 150.667 main 930 910 O_________P___ jtwc_wp WP021987 5.60000 150.600 25 -1 5.64021 150.735 1 25 8 249
1987093N05155 1987 25 WP MM PERCY 1987-04-07 21:00:00 NR 5.49507 150.281 main 910 885 P_________P___ WP021987 5.48499 150.243 25 -1 5.50515 150.320 1 25 8 254
1987093N05155 1987 25 WP MM PERCY 1987-04-08 00:00:00 NR 5.40000 149.900 main 885 864 O_________O___ jtwc_wp WP021987 5.40000 149.900 25 -1 5.40000 149.900 1 25 7 254
1987093N05155 1987 25 WP MM PERCY 1987-04-08 03:00:00 NR 5.29901 149.584 main 864 844 P_________P___ WP021987 5.28496 149.600 22 -1 5.31306 149.568 1 23 7 255
1987093N05155 1987 25 WP MM PERCY 1987-04-08 06:00:00 NR 5.22746 149.271 main 844 837 O_________P___ jtwc_wp WP021987 5.20000 149.300 20 -1 5.25491 149.243 1 22 7 261
1987093N05155 1987 25 WP MM PERCY 1987-04-08 09:00:00 NR 5.20216 148.936 main 834 828 P_________P___ WP021987 5.18500 148.950 20 -1 5.21931 148.921 1 21 7 268
1987093N05155 1987 25 WP MM PERCY 1987-04-08 12:00:00 NR 5.20000 148.600 main 828 824 O_________O___ jtwc_wp WP021987 5.20000 148.600 20 -1 5.20000 148.600 1 20 6 269
1987093N05155 1987 25 WP MM PERCY 1987-04-08 15:00:00 NR 5.19073 148.290 main 824 820 P_________P___ WP021987 5.19996 148.300 20 -1 5.18150 148.279 1 20 6 269
1987093N05155 1987 25 WP MM PERCY 1987-04-08 18:00:00 NR 5.18871 147.979 main 820 818 O_________P___ jtwc_wp WP021987 5.20000 148.000 20 -1 5.17741 147.958 1 20 6 270
1987093N05155 1987 25 WP MM PERCY 1987-04-08 21:00:00 NR 5.19231 147.645 main 818 818 P_________P___ WP021987 5.19999 147.658 20 -1 5.18462 147.632 1 20 7 271
1987093N05155 1987 25 WP MM PERCY 1987-04-09 00:00:00 NR 5.20000 147.300 main 818 818 O_________O___ jtwc_wp WP021987 5.20000 147.300 20 -1 5.20000 147.300 1 20 7 270
1987093N05155 1987 25 WP MM PERCY 1987-04-09 03:00:00 NR 5.18686 146.949 main 818 818 P_________P___ WP021987 5.19248 146.950 20 -1 5.18124 146.949 1 21 7 269
1987093N05155 1987 25 WP MM PERCY 1987-04-09 06:00:00 NR 5.18750 146.596 main 818 818 O_________P___ jtwc_wp WP021987 5.20000 146.600 20 -1 5.17500 146.592 1 22 7 272
1987093N05155 1987 25 WP MM PERCY 1987-04-09 09:00:00 NR 5.20936 146.248 main 819 819 P_________P___ WP021987 5.21247 146.257 22 -1 5.20625 146.240 1 23 7 279
1987093N05155 1987 25 WP MM PERCY 1987-04-09 12:00:00 NR 5.30000 145.900 main 832 832 O_________O___ jtwc_wp WP021987 5.30000 145.900 25 -1 5.30000 145.900 1 25 8 291
1987093N05155 1987 25 WP MM PERCY 1987-04-09 15:00:00 NR 5.49047 145.528 main 860 860 P_________P___ WP021987 5.52004 145.478 25 -1 5.46090 145.577 1 25 10 309
1987093N05155 1987 25 WP MM PERCY 1987-04-09 18:00:00 TS 5.89443 145.153 1006 tokyo main 909 909 OO________P___ jtwc_wp WP021987 5.80000 145.100 25 -1 7.10000 144.900 2 1006 0 0 0 5.68747 145.270 1 25 10 321
1987093N05155 1987 25 WP MM PERCY 1987-04-09 21:00:00 TS 6.23459 144.912 main 949 949 PP________P___ WP021987 6.01992 144.892 25 -1 7.19249 144.820 2 1006 0 0 5.97029 144.977 1 25 8 334
1987093N05155 1987 25 WP MM PERCY 1987-04-10 00:00:00 TS 6.60833 144.808 1006 tokyo main 995 995 OOO_______O___ jtwc_wp WP021987 6.30000 144.700 25 -1 7.30000 144.700 2 1006 0 0 0 7.00000 146.000 1 23 1006 6.30000 144.700 1 25 8 337
1987093N05155 1987 25 WP MM PERCY 1987-04-10 03:00:00 TS 6.97860 144.594 main 1043 1043 PPP_______P___ WP021987 6.73507 144.343 25 -1 7.43501 144.515 2 1005 0 0 7.18010 145.588 1 26 1004 6.66496 144.428 1 26 8 328
1987093N05155 1987 25 WP MM PERCY 1987-04-10 06:00:00 TS 7.31199 144.365 1004 tokyo main 1081 1081 OOO_______P___ jtwc_wp WP021987 7.20000 144.000 25 -1 7.60000 144.300 2 1004 0 0 0 7.40000 145.200 1 29 1002 7.06996 144.170 1 27 8 327
1987093N05155 1987 25 WP MM PERCY 1987-04-10 09:00:00 TS 7.62934 144.176 main 1119 1119 PPP_______P___ WP021987 7.56495 143.820 27 -1 7.77748 144.107 2 1004 0 0 7.68494 144.850 1 29 1002 7.48998 143.928 1 28 8 327
1987093N05155 1987 25 WP MM PERCY 1987-04-10 12:00:00 TS 7.95294 143.941 1004 tokyo main 1170 1170 OOOO______O___ jtwc_wp WP021987 7.90000 143.700 30 -1 8.00000 143.900 2 1004 0 0 0 8.00000 144.500 1 29 1002 8.00000 143.800 TD 30 1004 7.90000 143.700 1 30 8 323
1987093N05155 1987 25 WP MM PERCY 1987-04-10 15:00:00 TS 8.27649 143.688 main 1209 1209 PPPP______P___ WP021987 8.24997 143.565 32 -1 8.27750 143.657 2 1004 0 0 8.29248 144.107 1 33 1001 8.28755 143.538 TD 30 1004 8.28049 143.498 1 32 8 322
1987093N05155 1987 25 WP MM PERCY 1987-04-10 18:00:00 TS 8.60943 143.428 1004 tokyo main 1250 1250 OOOO______P___ jtwc_wp WP021987 8.60000 143.400 35 0 8.60000 143.400 2 1004 0 0 0 8.60000 143.700 2 38 1000 8.60000 143.300 TD 30 1004 8.64480 143.307 1 35 9 323
1987093N05155 1987 25 WP MM PERCY 1987-04-10 21:00:00 TS 8.96034 143.163 main 1299 1299 PPPP______P___ WP021987 8.96501 143.165 37 0 8.94248 143.150 2 1003 0 0 8.95750 143.285 2 38 999 8.94996 143.100 TD 35 1003 8.98673 143.113 1 37 9 323
1987093N05155 1987 25 WP MM PERCY 1987-04-11 00:00:00 TS 9.30000 142.900 1002 tokyo main 1327 1327 OOOO______O___ jtwc_wp WP021987 9.30000 142.900 40 0 9.30000 142.900 2 1002 0 0 0 9.30000 142.900 2 38 998 9.30000 142.900 TS 40 1003 9.30000 142.900 2 40 8 322
1987093N05155 1987 25 WP MM PERCY 1987-04-11 03:00:00 TS 9.60776 142.643 main 1346 1346 PPPP______P___ WP021987 9.56496 142.657 40 0 9.67246 142.657 2 1001 0 0 9.57996 142.570 2 38 998 9.62248 142.665 TS 40 1001 9.59893 142.667 2 38 8 318
1987093N05155 1987 25 WP MM PERCY 1987-04-11 06:00:00 TS 9.87345 142.382 45 1000 tokyo main 1370 1366 OOOO______P___ jtwc_wp WP021987 9.80000 142.400 40 0 10.0000 142.400 3 45 1000 0 9 150 150 0 9.80000 142.300 2 38 998 9.90000 142.400 TS 40 1000 9.86727 142.410 2 37 7 313
1987093N05155 1987 25 WP MM PERCY 1987-04-11 09:00:00 TS 10.0954 142.117 main 1380 1380 PPPP______P___ WP021987 10.0649 142.122 37 0 10.2375 142.115 3 45 1000 0 9 137 137 9.95738 142.115 2 38 998 10.1150 142.107 TS 37 1001 10.1020 142.123 2 36 7 306
1987093N05155 1987 25 WP MM PERCY 1987-04-11 12:00:00 TS 10.2800 141.820 45 1000 tokyo main 1391 1388 OOOO______O___ jtwc_wp WP021987 10.3000 141.800 35 0 10.4000 141.800 3 45 1000 0 9 125 125 0 10.1000 141.900 2 38 998 10.3000 141.800 TS 35 1002 10.3000 141.800 2 35 7 299
1987093N05155 1987 25 WP MM PERCY 1987-04-11 15:00:00 TS 10.4490 141.475 main 1393 1393 PPPP______P___ WP021987 10.4725 141.415 32 -1 10.5075 141.465 3 42 1001 0 9 112 112 10.2850 141.530 2 33 999 10.5149 141.522 TS 35 1002 10.4650 141.444 2 33 8 294
1987093N05155 1987 25 WP MM PERCY 1987-04-11 18:00:00 TS 10.5990 141.090 40 1002 tokyo main 1401 1393 OOOO______P___ jtwc_wp WP021987 10.6000 141.000 30 -1 10.6000 141.100 3 40 1002 0 9 100 100 0 10.5000 141.100 1 29 1000 10.7000 141.200 TS 35 1002 10.5949 141.052 2 32 8 291
1987093N05155 1987 25 WP MM PERCY 1987-04-11 21:00:00 TS 10.7449 140.695 main 1393 1391 PPPP______P___ WP021987 10.7074 140.607 30 -1 10.7424 140.722 3 1004 0 9 10.7649 140.723 1 29 1001 10.8074 140.787 TS 32 1004 10.7024 140.635 2 31 9 289
1987093N05155 1987 25 WP MM PERCY 1987-04-12 00:00:00 TS 10.8800 140.260 1006 tokyo main 1398 1387 OOOO______O___ jtwc_wp WP021987 10.8000 140.200 30 -1 10.9000 140.300 2 1006 0 0 0 11.0000 140.300 1 29 1002 10.9000 140.300 TD 30 1006 10.8000 140.200 1 30 10 286
1987093N05155 1987 25 WP MM PERCY 1987-04-12 03:00:00 TS 11.0074 139.760 main 1390 1383 PPPP______P___ WP021987 10.9000 139.757 27 -1 11.0575 139.808 2 1006 0 0 11.1301 139.750 1 26 1003 11.0501 139.750 TD 30 1006 10.8992 139.736 1 28 10 284
1987093N05155 1987 25 WP MM PERCY 1987-04-12 06:00:00 TS 11.1186 139.252 1006 tokyo main 1384 1377 OOOO______P___ jtwc_wp WP021987 11.0000 139.300 25 -1 11.2000 139.300 2 1006 0 0 0 11.2000 139.200 1 23 1004 11.2000 139.200 TD 30 1006 10.9928 139.262 1 27 10 282
1987093N05155 1987 25 WP MM PERCY 1987-04-12 09:00:00 TS 11.2139 138.786 main 1379 1354 PPPP______P___ WP021987 11.1000 138.835 25 -1 11.3075 138.820 2 1006 0 0 11.2574 138.770 1 23 1004 11.3150 138.697 TD 27 1006 11.0899 138.808 1 26 9 282
1987093N05155 1987 25 WP MM PERCY 1987-04-12 12:00:00 TS 11.3000 138.380 1006 tokyo main 1354 1325 OOOO______O___ jtwc_wp WP021987 11.2000 138.400 25 -1 11.4000 138.400 2 1006 0 0 0 11.3000 138.400 1 23 1004 11.4000 138.300 TD 25 1006 11.2000 138.400 1 25 7 283
1987093N05155 1987 25 WP MM PERCY 1987-04-12 15:00:00 TS 11.3820 138.065 main 1325 1295 PPPP______P___ WP021987 11.2850 138.012 25 -1 11.4999 138.085 2 1006 0 0 11.3574 138.043 1 23 1004 11.4574 138.062 TD 25 1006 11.3105 138.123 1 25 6 286
1987093N05155 1987 25 WP MM PERCY 1987-04-12 18:00:00 TS 11.4661 137.792 1006 tokyo main 1295 1265 OOOO______P___ jtwc_wp WP021987 11.4000 137.700 25 -1 11.6000 137.800 2 1006 0 0 0 11.4000 137.700 1 23 1004 11.5000 137.900 TD 25 1006 11.4389 137.886 1 25 6 289
1987093N05155 1987 25 WP MM PERCY 1987-04-12 21:00:00 TS 11.5614 137.520 main 1265 1235 PPPP______P___ WP021987 11.5548 137.522 25 -1 11.6850 137.465 2 1006 0 0 11.4149 137.365 1 23 1004 11.5476 137.713 TD 25 1006 11.5979 137.632 1 25 6 291
1987093N05155 1987 25 WP MM PERCY 1987-04-13 00:00:00 TS 11.6941 137.194 1006 tokyo main 1235 1198 OOOO______O___ jtwc_wp WP021987 11.8000 137.300 25 -1 11.8000 137.100 2 1006 0 0 0 11.4000 137.000 1 23 1004 11.6000 137.500 TD 25 1006 11.8000 137.300 1 25 8 294
1987093N05155 1987 25 WP MM PERCY 1987-04-13 03:00:00 TS 11.9030 136.748 main 1187 1151 PPP_______P___ WP021987 12.2000 136.868 25 -1 11.9849 136.722 2 1006 0 0 11.3499 136.580 1 23 1005 TD 12.0774 136.820 1 25 10 298
1987093N05155 1987 25 WP MM PERCY 1987-04-13 06:00:00 TS 12.1781 136.248 1006 tokyo main 1141 1089 OOO_______P___ jtwc_wp WP021987 12.6000 136.300 25 -1 12.2000 136.300 2 1006 0 0 0 11.3000 136.100 1 23 1006 12.3928 136.256 1 25 12 298
1987093N05155 1987 25 WP MM PERCY 1987-04-13 09:00:00 TS 12.4530 135.692 main 1091 1030 PPP_______P___ WP021987 12.8375 135.672 25 -1 12.3924 135.830 2 1006 0 0 11.2877 135.565 1 23 1006 12.7117 135.639 1 25 13 297
1987093N05155 1987 25 WP MM PERCY 1987-04-13 12:00:00 TS 12.7462 135.092 1006 tokyo main 1030 972 OOO_______O___ jtwc_wp WP021987 13.0000 135.000 25 -1 12.6000 135.300 2 1006 0 0 0 11.3000 135.000 1 23 1006 13.0000 135.000 1 25 13 298
1987093N05155 1987 25 WP MM PERCY 1987-04-13 15:00:00 TS 13.0732 134.477 main 975 914 PP________P___ WP021987 13.1499 134.342 25 -1 12.8424 134.722 2 1007 0 0 1 13.2273 134.365 1 25 13 293
1987093N05155 1987 25 WP MM PERCY 1987-04-13 18:00:00 TS 13.2726 133.840 1008 tokyo main 907 847 OO________P___ jtwc_wp WP021987 13.3000 133.700 25 -1 13.1000 134.100 2 1008 0 0 0 13.4177 133.720 1 25 13 288
1987093N05155 1987 25 WP MM PERCY 1987-04-13 21:00:00 TS 13.4822 133.198 main 847 787 PP________P___ WP021987 13.5074 133.070 25 -1 13.3650 133.435 2 1008 0 0 13.5742 133.090 1 25 13 288
1987093N05155 1987 25 WP MM PERCY 1987-04-14 00:00:00 TS 13.6667 132.600 1008 tokyo main 787 737 OO________O___ jtwc_wp WP021987 13.7000 132.500 25 -1 13.6000 132.800 2 1008 0 0 0 13.7000 132.500 1 25 11 287
1987093N05155 1987 25 WP MM PERCY 1987-04-14 03:00:00 TS 13.8045 132.091 main 737 687 PP________P___ WP021987 13.8222 132.035 25 -1 13.7797 132.277 2 1008 0 0 13.8114 131.961 1 25 10 284
1987093N05155 1987 25 WP MM PERCY 1987-04-14 06:00:00 TS 13.8981 131.622 1008 tokyo main 687 649 OO________P___ jtwc_wp WP021987 13.9000 131.600 25 -1 13.9000 131.800 2 1008 0 0 0 13.8944 131.467 1 25 10 280
1987093N05155 1987 25 WP MM PERCY 1987-04-14 09:00:00 TS 13.9643 131.123 main 639 598 PP________P___ WP021987 13.9651 131.085 25 -1 13.9726 131.270 2 1008 0 0 13.9553 131.015 1 25 9 276
1987093N05155 1987 25 WP MM PERCY 1987-04-14 12:00:00 TS 14.0000 130.667 1008 tokyo main 598 557 OO________O___ jtwc_wp WP021987 14.0000 130.600 25 -1 14.0000 130.800 2 1008 0 0 0 14.0000 130.600 1 25 8 274
1987093N05155 1987 25 WP MM PERCY 1987-04-14 15:00:00 TS 14.0137 130.308 main 557 527 PP________P___ WP021987 13.9998 130.227 25 -1 14.0073 130.477 2 1008 0 0 14.0340 130.219 1 25 6 272
1987093N05155 1987 25 WP MM PERCY 1987-04-14 18:00:00 TS 14.0181 130.010 1008 tokyo main 527 497 OO________P___ jtwc_wp WP021987 14.0000 129.900 25 -1 14.0000 130.200 2 1008 0 0 0 14.0604 129.865 1 25 6 272
1987093N05155 1987 25 WP MM PERCY 1987-04-14 21:00:00 TS 14.0298 129.696 main 497 468 PP________P___ WP021987 14.0377 129.558 25 -1 14.0000 129.850 2 1008 0 0 14.0816 129.528 1 25 6 271
1987093N05155 1987 25 WP MM PERCY 1987-04-15 00:00:00 TS 14.0333 129.400 1008 tokyo main 468 448 OO________O___ jtwc_wp WP021987 14.1000 129.200 25 -1 14.0000 129.500 2 1008 0 0 0 14.1000 129.200 1 25 5 266
1987093N05155 1987 25 WP MM PERCY 1987-04-15 03:00:00 TS 13.9925 129.177 main 448 419 _P____________ WP021987 -1 13.9925 129.177 2 1008 0 0 1 5 266
1987093N05155 1987 25 WP MM PERCY 1987-04-15 06:00:00 TS 14.0000 128.900 1008 tokyo main 419 401 _O____________ -1 14.0000 128.900 2 1008 0 0 0 1 5 277
1987093N05155 1987 25 WP MM PERCY 1987-04-15 09:00:00 TS 14.0500 128.678 main 401 388 _P____________ -1 14.0500 128.678 2 1009 0 0 1 4 284
1987093N05155 1987 25 WP MM PERCY 1987-04-15 12:00:00 TS 14.1000 128.500 1010 tokyo main 388 370 _O____________ -1 14.1000 128.500 2 1010 0 0 0 3 280
1987093N05155 1987 25 WP MM PERCY 1987-04-15 15:00:00 TS 14.1075 128.335 main 370 361 _P____________ -1 14.1075 128.335 2 1010 0 0 3 270
1987093N05155 1987 25 WP MM PERCY 1987-04-15 18:00:00 TS 14.1000 128.200 1010 tokyo main 361 352 _O____________ -1 14.1000 128.200 2 1010 0 0 0 2 268
1987093N05155 1987 25 WP MM PERCY 1987-04-15 21:00:00 TS 14.1000 128.092 main 352 344 _P____________ -1 14.1000 128.092 2 1010 0 0 2 270
1987093N05155 1987 25 WP MM PERCY 1987-04-16 00:00:00 TS 14.1000 128.000 1010 tokyo main 344 335 _O____________ -1 14.1000 128.000 2 1010 0 0 0 2 268
1987093N05155 1987 25 WP MM PERCY 1987-04-16 03:00:00 TS 14.0925 127.915 main 335 327 _P____________ -1 14.0925 127.915 2 1010 0 0 2 270
1987093N05155 1987 25 WP MM PERCY 1987-04-16 06:00:00 TS 14.1000 127.800 1010 tokyo main 327 311 _O____________ -1 14.1000 127.800 2 1010 0 0 0 3 280
1987093N05155 1987 25 WP MM PERCY 1987-04-16 09:00:00 TS 14.1401 127.620 main 311 303 _P____________ -1 14.1401 127.620 2 1010 0 0 4 284
1987093N05155 1987 25 WP MM PERCY 1987-04-16 12:00:00 TS 14.2000 127.400 1010 tokyo main 303 _O____________ -1 14.2000 127.400 2 1010 0 0 0 4 286

デジタル台風データ・検索

IBTrACS Databaseについて

本データベースは、米国NOAAが公開する1842年以降の世界の熱帯低気圧のベストトラックデータアーカイブInternational Best Track Archive for Climate Stewardship (IBTrACS)を、ウェブで閲覧しやすい形式に変換したものです。

最終更新日:2021-10-25